sensor_id;sensor_type;location;lat;lon;timestamp;P1;durP1;ratioP1;P2;durP2;ratioP2
27857;SDS011;16852;51.446;6.528;2023-07-24T00:00:20;3.47;;;2.28;;
27857;SDS011;16852;51.446;6.528;2023-07-24T00:02:21;1.65;;;1.40;;
27857;SDS011;16852;51.446;6.528;2023-07-24T00:04:21;4.65;;;2.08;;
27857;SDS011;16852;51.446;6.528;2023-07-24T00:06:22;2.95;;;2.05;;
27857;SDS011;16852;51.446;6.528;2023-07-24T00:08:23;2.70;;;2.00;;
27857;SDS011;16852;51.446;6.528;2023-07-24T00:10:23;2.42;;;2.03;;
27857;SDS011;16852;51.446;6.528;2023-07-24T00:12:24;4.00;;;2.45;;
27857;SDS011;16852;51.446;6.528;2023-07-24T00:14:25;4.47;;;2.40;;
27857;SDS011;16852;51.446;6.528;2023-07-24T00:16:25;3.63;;;2.63;;
27857;SDS011;16852;51.446;6.528;2023-07-24T00:18:26;3.58;;;2.50;;
27857;SDS011;16852;51.446;6.528;2023-07-24T00:20:26;2.55;;;2.20;;
27857;SDS011;16852;51.446;6.528;2023-07-24T00:22:27;2.83;;;2.30;;
27857;SDS011;16852;51.446;6.528;2023-07-24T00:24:29;2.58;;;2.05;;
27857;SDS011;16852;51.446;6.528;2023-07-24T00:26:30;3.03;;;2.42;;
27857;SDS011;16852;51.446;6.528;2023-07-24T00:28:30;2.75;;;2.10;;
27857;SDS011;16852;51.446;6.528;2023-07-24T00:30:31;4.47;;;2.80;;
27857;SDS011;16852;51.446;6.528;2023-07-24T00:32:31;2.75;;;2.20;;
27857;SDS011;16852;51.446;6.528;2023-07-24T00:34:32;3.42;;;2.47;;
27857;SDS011;16852;51.446;6.528;2023-07-24T00:36:32;4.95;;;2.75;;
27857;SDS011;16852;51.446;6.528;2023-07-24T00:38:33;3.25;;;2.47;;
27857;SDS011;16852;51.446;6.528;2023-07-24T00:40:34;2.97;;;2.58;;
27857;SDS011;16852;51.446;6.528;2023-07-24T00:42:34;3.15;;;2.28;;
27857;SDS011;16852;51.446;6.528;2023-07-24T00:44:35;4.60;;;2.55;;
27857;SDS011;16852;51.446;6.528;2023-07-24T00:46:36;3.38;;;2.42;;
27857;SDS011;16852;51.446;6.528;2023-07-24T00:48:38;2.80;;;2.35;;
27857;SDS011;16852;51.446;6.528;2023-07-24T00:50:39;3.13;;;2.40;;
27857;SDS011;16852;51.446;6.528;2023-07-24T00:52:42;4.30;;;2.65;;
27857;SDS011;16852;51.446;6.528;2023-07-24T00:54:43;2.60;;;2.25;;
27857;SDS011;16852;51.446;6.528;2023-07-24T00:56:45;2.57;;;2.20;;
27857;SDS011;16852;51.446;6.528;2023-07-24T00:58:45;3.05;;;2.47;;
27857;SDS011;16852;51.446;6.528;2023-07-24T01:00:47;3.08;;;2.38;;
27857;SDS011;16852;51.446;6.528;2023-07-24T01:02:48;3.15;;;2.40;;
27857;SDS011;16852;51.446;6.528;2023-07-24T01:04:49;4.80;;;2.78;;
27857;SDS011;16852;51.446;6.528;2023-07-24T01:06:50;3.15;;;2.60;;
27857;SDS011;16852;51.446;6.528;2023-07-24T01:08:50;4.75;;;2.83;;
27857;SDS011;16852;51.446;6.528;2023-07-24T01:10:51;3.83;;;2.72;;
27857;SDS011;16852;51.446;6.528;2023-07-24T01:12:56;3.58;;;2.63;;
27857;SDS011;16852;51.446;6.528;2023-07-24T01:15:16;4.18;;;2.90;;
27857;SDS011;16852;51.446;6.528;2023-07-24T01:17:24;3.45;;;2.45;;
27857;SDS011;16852;51.446;6.528;2023-07-24T01:19:36;2.70;;;2.40;;
27857;SDS011;16852;51.446;6.528;2023-07-24T01:24:33;2.72;;;2.38;;
27857;SDS011;16852;51.446;6.528;2023-07-24T01:26:40;2.50;;;2.10;;
27857;SDS011;16852;51.446;6.528;2023-07-24T01:28:41;4.43;;;2.97;;
27857;SDS011;16852;51.446;6.528;2023-07-24T01:30:42;4.80;;;2.95;;
27857;SDS011;16852;51.446;6.528;2023-07-24T01:32:42;4.38;;;2.85;;
27857;SDS011;16852;51.446;6.528;2023-07-24T01:34:44;8.85;;;2.80;;
27857;SDS011;16852;51.446;6.528;2023-07-24T01:36:45;3.60;;;2.75;;
27857;SDS011;16852;51.446;6.528;2023-07-24T01:38:45;4.45;;;3.08;;
27857;SDS011;16852;51.446;6.528;2023-07-24T01:40:48;4.13;;;3.08;;
27857;SDS011;16852;51.446;6.528;2023-07-24T01:42:48;3.72;;;2.70;;
27857;SDS011;16852;51.446;6.528;2023-07-24T01:44:51;5.60;;;2.72;;
27857;SDS011;16852;51.446;6.528;2023-07-24T01:46:54;3.22;;;2.60;;
27857;SDS011;16852;51.446;6.528;2023-07-24T01:48:55;3.13;;;2.33;;
27857;SDS011;16852;51.446;6.528;2023-07-24T01:50:56;3.78;;;2.28;;
27857;SDS011;16852;51.446;6.528;2023-07-24T01:52:57;3.35;;;2.35;;
27857;SDS011;16852;51.446;6.528;2023-07-24T01:54:58;3.13;;;2.75;;
27857;SDS011;16852;51.446;6.528;2023-07-24T01:56:58;3.88;;;2.50;;
27857;SDS011;16852;51.446;6.528;2023-07-24T01:58:59;2.85;;;2.20;;
27857;SDS011;16852;51.446;6.528;2023-07-24T02:00:59;3.47;;;2.47;;
27857;SDS011;16852;51.446;6.528;2023-07-24T02:03:00;3.53;;;2.50;;
27857;SDS011;16852;51.446;6.528;2023-07-24T02:05:00;3.58;;;2.83;;
27857;SDS011;16852;51.446;6.528;2023-07-24T02:07:01;6.28;;;2.80;;
27857;SDS011;16852;51.446;6.528;2023-07-24T02:09:02;4.15;;;2.60;;
27857;SDS011;16852;51.446;6.528;2023-07-24T02:11:02;3.83;;;2.13;;
27857;SDS011;16852;51.446;6.528;2023-07-24T02:13:03;2.97;;;2.47;;
27857;SDS011;16852;51.446;6.528;2023-07-24T02:15:03;3.55;;;2.63;;
27857;SDS011;16852;51.446;6.528;2023-07-24T02:17:04;3.65;;;2.53;;
27857;SDS011;16852;51.446;6.528;2023-07-24T02:19:05;4.05;;;2.88;;
27857;SDS011;16852;51.446;6.528;2023-07-24T02:21:06;5.25;;;2.78;;
27857;SDS011;16852;51.446;6.528;2023-07-24T02:23:07;4.57;;;3.05;;
27857;SDS011;16852;51.446;6.528;2023-07-24T02:25:09;3.80;;;2.85;;
27857;SDS011;16852;51.446;6.528;2023-07-24T02:27:12;3.83;;;2.53;;
27857;SDS011;16852;51.446;6.528;2023-07-24T02:29:24;4.13;;;2.85;;
27857;SDS011;16852;51.446;6.528;2023-07-24T02:31:25;3.95;;;2.50;;
27857;SDS011;16852;51.446;6.528;2023-07-24T02:33:26;4.43;;;2.83;;
27857;SDS011;16852;51.446;6.528;2023-07-24T02:35:26;4.85;;;2.83;;
27857;SDS011;16852;51.446;6.528;2023-07-24T02:37:27;4.57;;;2.50;;
27857;SDS011;16852;51.446;6.528;2023-07-24T02:39:27;4.45;;;2.65;;
27857;SDS011;16852;51.446;6.528;2023-07-24T02:41:28;3.25;;;2.75;;
27857;SDS011;16852;51.446;6.528;2023-07-24T02:43:28;2.92;;;2.50;;
27857;SDS011;16852;51.446;6.528;2023-07-24T02:45:29;2.70;;;2.40;;
27857;SDS011;16852;51.446;6.528;2023-07-24T02:47:30;2.85;;;2.50;;
27857;SDS011;16852;51.446;6.528;2023-07-24T02:49:31;5.28;;;2.83;;
27857;SDS011;16852;51.446;6.528;2023-07-24T02:51:32;5.13;;;2.85;;
27857;SDS011;16852;51.446;6.528;2023-07-24T02:53:33;4.13;;;2.95;;
27857;SDS011;16852;51.446;6.528;2023-07-24T02:55:33;3.88;;;2.80;;
27857;SDS011;16852;51.446;6.528;2023-07-24T02:57:34;5.63;;;2.38;;
27857;SDS011;16852;51.446;6.528;2023-07-24T02:59:34;3.15;;;2.55;;
27857;SDS011;16852;51.446;6.528;2023-07-24T03:01:35;4.20;;;2.45;;
27857;SDS011;16852;51.446;6.528;2023-07-24T03:03:36;4.50;;;2.95;;
27857;SDS011;16852;51.446;6.528;2023-07-24T03:05:37;4.63;;;2.90;;
27857;SDS011;16852;51.446;6.528;2023-07-24T03:07:38;7.45;;;3.25;;
27857;SDS011;16852;51.446;6.528;2023-07-24T03:09:38;5.20;;;3.22;;
27857;SDS011;16852;51.446;6.528;2023-07-24T03:11:39;3.60;;;2.95;;
27857;SDS011;16852;51.446;6.528;2023-07-24T03:13:39;3.75;;;2.80;;
27857;SDS011;16852;51.446;6.528;2023-07-24T03:15:41;6.97;;;3.38;;
27857;SDS011;16852;51.446;6.528;2023-07-24T03:17:41;4.38;;;2.53;;
27857;SDS011;16852;51.446;6.528;2023-07-24T03:19:42;5.25;;;3.38;;
27857;SDS011;16852;51.446;6.528;2023-07-24T03:21:42;3.95;;;2.83;;
27857;SDS011;16852;51.446;6.528;2023-07-24T03:23:43;5.70;;;3.00;;
27857;SDS011;16852;51.446;6.528;2023-07-24T03:25:44;6.78;;;3.50;;
27857;SDS011;16852;51.446;6.528;2023-07-24T03:27:44;5.53;;;3.28;;
27857;SDS011;16852;51.446;6.528;2023-07-24T03:29:45;3.50;;;2.80;;
27857;SDS011;16852;51.446;6.528;2023-07-24T03:31:45;6.50;;;3.40;;
27857;SDS011;16852;51.446;6.528;2023-07-24T03:33:46;4.95;;;3.30;;
27857;SDS011;16852;51.446;6.528;2023-07-24T03:35:46;5.07;;;2.90;;
27857;SDS011;16852;51.446;6.528;2023-07-24T03:37:47;3.67;;;2.90;;
27857;SDS011;16852;51.446;6.528;2023-07-24T03:39:47;4.95;;;2.90;;
27857;SDS011;16852;51.446;6.528;2023-07-24T03:41:48;3.00;;;2.70;;
27857;SDS011;16852;51.446;6.528;2023-07-24T03:43:49;4.88;;;3.10;;
27857;SDS011;16852;51.446;6.528;2023-07-24T03:45:50;5.47;;;3.15;;
27857;SDS011;16852;51.446;6.528;2023-07-24T03:47:50;3.50;;;2.90;;
27857;SDS011;16852;51.446;6.528;2023-07-24T03:49:51;5.90;;;3.70;;
27857;SDS011;16852;51.446;6.528;2023-07-24T03:51:51;5.50;;;3.10;;
27857;SDS011;16852;51.446;6.528;2023-07-24T03:53:52;5.40;;;3.55;;
27857;SDS011;16852;51.446;6.528;2023-07-24T03:55:53;4.72;;;2.92;;
27857;SDS011;16852;51.446;6.528;2023-07-24T03:57:53;5.25;;;3.10;;
27857;SDS011;16852;51.446;6.528;2023-07-24T03:59:54;4.47;;;2.88;;
27857;SDS011;16852;51.446;6.528;2023-07-24T04:01:54;6.00;;;3.33;;
27857;SDS011;16852;51.446;6.528;2023-07-24T04:03:56;6.70;;;3.83;;
27857;SDS011;16852;51.446;6.528;2023-07-24T04:05:57;5.32;;;2.97;;
27857;SDS011;16852;51.446;6.528;2023-07-24T04:07:59;5.40;;;3.58;;
27857;SDS011;16852;51.446;6.528;2023-07-24T04:09:59;8.20;;;3.92;;
27857;SDS011;16852;51.446;6.528;2023-07-24T04:12:00;4.30;;;3.10;;
27857;SDS011;16852;51.446;6.528;2023-07-24T04:14:01;7.88;;;4.10;;
27857;SDS011;16852;51.446;6.528;2023-07-24T04:16:01;4.13;;;3.33;;
27857;SDS011;16852;51.446;6.528;2023-07-24T04:18:02;6.55;;;3.30;;
27857;SDS011;16852;51.446;6.528;2023-07-24T04:20:03;5.72;;;3.00;;
27857;SDS011;16852;51.446;6.528;2023-07-24T04:22:03;5.85;;;3.47;;
27857;SDS011;16852;51.446;6.528;2023-07-24T04:24:04;6.03;;;3.28;;
27857;SDS011;16852;51.446;6.528;2023-07-24T04:26:05;5.53;;;3.47;;
27857;SDS011;16852;51.446;6.528;2023-07-24T04:28:05;9.23;;;3.95;;
27857;SDS011;16852;51.446;6.528;2023-07-24T04:30:06;7.50;;;3.53;;
27857;SDS011;16852;51.446;6.528;2023-07-24T04:32:07;6.10;;;3.45;;
27857;SDS011;16852;51.446;6.528;2023-07-24T04:34:08;5.97;;;3.60;;
27857;SDS011;16852;51.446;6.528;2023-07-24T04:36:08;7.85;;;3.85;;
27857;SDS011;16852;51.446;6.528;2023-07-24T04:38:09;6.88;;;3.45;;
27857;SDS011;16852;51.446;6.528;2023-07-24T04:40:10;5.82;;;3.22;;
27857;SDS011;16852;51.446;6.528;2023-07-24T04:42:11;5.25;;;3.35;;
27857;SDS011;16852;51.446;6.528;2023-07-24T04:44:11;5.18;;;3.70;;
27857;SDS011;16852;51.446;6.528;2023-07-24T04:46:12;5.13;;;3.38;;
27857;SDS011;16852;51.446;6.528;2023-07-24T04:48:12;6.50;;;3.60;;
27857;SDS011;16852;51.446;6.528;2023-07-24T04:50:13;4.63;;;3.22;;
27857;SDS011;16852;51.446;6.528;2023-07-24T04:52:14;3.83;;;2.85;;
27857;SDS011;16852;51.446;6.528;2023-07-24T04:54:14;6.65;;;3.53;;
27857;SDS011;16852;51.446;6.528;2023-07-24T04:56:15;6.50;;;3.47;;
27857;SDS011;16852;51.446;6.528;2023-07-24T04:58:15;9.40;;;3.80;;
27857;SDS011;16852;51.446;6.528;2023-07-24T05:00:16;4.40;;;3.28;;
27857;SDS011;16852;51.446;6.528;2023-07-24T05:02:16;6.35;;;3.45;;
27857;SDS011;16852;51.446;6.528;2023-07-24T05:04:17;5.43;;;3.28;;
27857;SDS011;16852;51.446;6.528;2023-07-24T05:06:18;9.15;;;3.55;;
27857;SDS011;16852;51.446;6.528;2023-07-24T05:08:18;4.63;;;2.90;;
27857;SDS011;16852;51.446;6.528;2023-07-24T05:10:19;5.47;;;3.70;;
27857;SDS011;16852;51.446;6.528;2023-07-24T05:12:19;4.70;;;3.20;;
27857;SDS011;16852;51.446;6.528;2023-07-24T05:14:20;5.00;;;2.95;;
27857;SDS011;16852;51.446;6.528;2023-07-24T05:16:20;7.28;;;3.65;;
27857;SDS011;16852;51.446;6.528;2023-07-24T05:18:21;5.60;;;3.88;;
27857;SDS011;16852;51.446;6.528;2023-07-24T05:20:21;5.18;;;3.35;;
27857;SDS011;16852;51.446;6.528;2023-07-24T05:22:22;8.05;;;4.00;;
27857;SDS011;16852;51.446;6.528;2023-07-24T05:24:23;6.60;;;3.58;;
27857;SDS011;16852;51.446;6.528;2023-07-24T05:26:23;6.90;;;3.90;;
27857;SDS011;16852;51.446;6.528;2023-07-24T05:28:27;5.43;;;3.58;;
27857;SDS011;16852;51.446;6.528;2023-07-24T05:30:28;5.22;;;3.60;;
27857;SDS011;16852;51.446;6.528;2023-07-24T05:32:29;8.57;;;3.67;;
27857;SDS011;16852;51.446;6.528;2023-07-24T05:34:29;4.38;;;3.10;;
27857;SDS011;16852;51.446;6.528;2023-07-24T05:36:30;5.63;;;3.78;;
27857;SDS011;16852;51.446;6.528;2023-07-24T05:38:30;6.18;;;3.72;;
27857;SDS011;16852;51.446;6.528;2023-07-24T05:40:31;8.05;;;3.88;;
27857;SDS011;16852;51.446;6.528;2023-07-24T05:42:32;5.95;;;3.63;;
27857;SDS011;16852;51.446;6.528;2023-07-24T05:44:32;4.75;;;3.40;;
27857;SDS011;16852;51.446;6.528;2023-07-24T05:46:35;6.30;;;3.55;;
27857;SDS011;16852;51.446;6.528;2023-07-24T05:48:36;6.18;;;3.55;;
27857;SDS011;16852;51.446;6.528;2023-07-24T05:50:36;5.25;;;3.40;;
27857;SDS011;16852;51.446;6.528;2023-07-24T05:52:37;6.68;;;3.40;;
27857;SDS011;16852;51.446;6.528;2023-07-24T05:54:38;5.60;;;3.55;;
27857;SDS011;16852;51.446;6.528;2023-07-24T05:56:38;6.35;;;3.88;;
27857;SDS011;16852;51.446;6.528;2023-07-24T05:58:39;6.07;;;3.90;;
27857;SDS011;16852;51.446;6.528;2023-07-24T06:00:39;8.63;;;3.80;;
27857;SDS011;16852;51.446;6.528;2023-07-24T06:02:40;8.85;;;3.85;;
27857;SDS011;16852;51.446;6.528;2023-07-24T06:04:40;5.43;;;3.35;;
27857;SDS011;16852;51.446;6.528;2023-07-24T06:06:41;4.00;;;2.67;;
27857;SDS011;16852;51.446;6.528;2023-07-24T06:08:43;2.67;;;1.85;;
27857;SDS011;16852;51.446;6.528;2023-07-24T06:10:45;3.20;;;2.10;;
27857;SDS011;16852;51.446;6.528;2023-07-24T06:12:47;2.83;;;2.00;;
27857;SDS011;16852;51.446;6.528;2023-07-24T06:14:48;3.75;;;1.80;;
27857;SDS011;16852;51.446;6.528;2023-07-24T06:16:48;2.90;;;1.30;;
27857;SDS011;16852;51.446;6.528;2023-07-24T06:18:49;3.88;;;1.75;;
27857;SDS011;16852;51.446;6.528;2023-07-24T06:20:53;3.40;;;1.75;;
27857;SDS011;16852;51.446;6.528;2023-07-24T06:22:54;2.35;;;1.70;;
27857;SDS011;16852;51.446;6.528;2023-07-24T06:24:54;1.85;;;1.38;;
27857;SDS011;16852;51.446;6.528;2023-07-24T06:26:55;1.67;;;1.20;;
27857;SDS011;16852;51.446;6.528;2023-07-24T06:28:55;1.38;;;1.10;;
27857;SDS011;16852;51.446;6.528;2023-07-24T06:30:56;2.53;;;1.30;;
27857;SDS011;16852;51.446;6.528;2023-07-24T06:32:56;2.35;;;1.13;;
27857;SDS011;16852;51.446;6.528;2023-07-24T06:34:57;1.80;;;1.08;;
27857;SDS011;16852;51.446;6.528;2023-07-24T06:36:57;2.95;;;1.33;;
27857;SDS011;16852;51.446;6.528;2023-07-24T06:38:58;1.45;;;1.20;;
27857;SDS011;16852;51.446;6.528;2023-07-24T06:40:59;1.83;;;1.02;;
27857;SDS011;16852;51.446;6.528;2023-07-24T06:42:59;3.67;;;1.23;;
27857;SDS011;16852;51.446;6.528;2023-07-24T06:45:00;1.27;;;1.10;;
27857;SDS011;16852;51.446;6.528;2023-07-24T06:47:01;1.38;;;1.10;;
27857;SDS011;16852;51.446;6.528;2023-07-24T06:49:01;2.03;;;1.23;;
27857;SDS011;16852;51.446;6.528;2023-07-24T06:51:02;2.25;;;1.40;;
27857;SDS011;16852;51.446;6.528;2023-07-24T06:53:02;3.40;;;1.48;;
27857;SDS011;16852;51.446;6.528;2023-07-24T06:55:03;2.53;;;1.48;;
27857;SDS011;16852;51.446;6.528;2023-07-24T06:57:04;1.42;;;1.20;;
27857;SDS011;16852;51.446;6.528;2023-07-24T06:59:05;1.58;;;1.10;;
27857;SDS011;16852;51.446;6.528;2023-07-24T07:01:06;1.95;;;1.40;;
27857;SDS011;16852;51.446;6.528;2023-07-24T07:03:07;1.42;;;1.25;;
27857;SDS011;16852;51.446;6.528;2023-07-24T07:05:07;1.67;;;1.30;;
27857;SDS011;16852;51.446;6.528;2023-07-24T07:07:08;2.13;;;1.42;;
27857;SDS011;16852;51.446;6.528;2023-07-24T07:09:10;1.85;;;1.40;;
27857;SDS011;16852;51.446;6.528;2023-07-24T07:11:11;1.88;;;1.33;;
27857;SDS011;16852;51.446;6.528;2023-07-24T07:13:12;3.33;;;1.30;;
27857;SDS011;16852;51.446;6.528;2023-07-24T07:15:12;1.05;;;0.95;;
27857;SDS011;16852;51.446;6.528;2023-07-24T07:17:13;1.30;;;1.20;;
27857;SDS011;16852;51.446;6.528;2023-07-24T07:19:14;1.98;;;1.35;;
27857;SDS011;16852;51.446;6.528;2023-07-24T07:21:14;2.72;;;1.30;;
27857;SDS011;16852;51.446;6.528;2023-07-24T07:23:15;2.28;;;1.48;;
27857;SDS011;16852;51.446;6.528;2023-07-24T07:25:16;1.85;;;1.30;;
27857;SDS011;16852;51.446;6.528;2023-07-24T07:27:17;1.73;;;1.60;;
27857;SDS011;16852;51.446;6.528;2023-07-24T07:29:17;1.67;;;1.58;;
27857;SDS011;16852;51.446;6.528;2023-07-24T07:31:18;2.03;;;1.65;;
27857;SDS011;16852;51.446;6.528;2023-07-24T07:33:19;2.13;;;1.38;;
27857;SDS011;16852;51.446;6.528;2023-07-24T07:35:21;2.00;;;1.75;;
27857;SDS011;16852;51.446;6.528;2023-07-24T07:37:22;1.60;;;1.50;;
27857;SDS011;16852;51.446;6.528;2023-07-24T07:39:23;1.15;;;1.08;;
27857;SDS011;16852;51.446;6.528;2023-07-24T07:41:23;1.60;;;1.10;;
27857;SDS011;16852;51.446;6.528;2023-07-24T07:43:24;1.55;;;1.30;;
27857;SDS011;16852;51.446;6.528;2023-07-24T07:45:24;1.67;;;1.33;;
27857;SDS011;16852;51.446;6.528;2023-07-24T07:47:25;1.83;;;1.50;;
27857;SDS011;16852;51.446;6.528;2023-07-24T07:49:25;1.33;;;1.08;;
27857;SDS011;16852;51.446;6.528;2023-07-24T07:51:26;3.20;;;1.25;;
27857;SDS011;16852;51.446;6.528;2023-07-24T07:53:27;1.20;;;1.00;;
27857;SDS011;16852;51.446;6.528;2023-07-24T07:55:27;1.60;;;1.40;;
27857;SDS011;16852;51.446;6.528;2023-07-24T07:57:28;1.35;;;1.23;;
27857;SDS011;16852;51.446;6.528;2023-07-24T07:59:28;2.22;;;1.20;;
27857;SDS011;16852;51.446;6.528;2023-07-24T08:01:29;1.77;;;1.15;;
27857;SDS011;16852;51.446;6.528;2023-07-24T08:03:30;1.17;;;1.00;;
27857;SDS011;16852;51.446;6.528;2023-07-24T08:05:31;1.13;;;1.02;;
27857;SDS011;16852;51.446;6.528;2023-07-24T08:07:32;1.98;;;1.75;;
27857;SDS011;16852;51.446;6.528;2023-07-24T08:09:32;5.25;;;3.30;;
27857;SDS011;16852;51.446;6.528;2023-07-24T08:11:33;5.13;;;2.58;;
27857;SDS011;16852;51.446;6.528;2023-07-24T08:13:34;3.30;;;2.00;;
27857;SDS011;16852;51.446;6.528;2023-07-24T08:15:35;1.75;;;1.25;;
27857;SDS011;16852;51.446;6.528;2023-07-24T08:17:36;1.98;;;1.23;;
27857;SDS011;16852;51.446;6.528;2023-07-24T08:19:37;1.73;;;1.10;;
27857;SDS011;16852;51.446;6.528;2023-07-24T08:21:38;1.30;;;1.10;;
27857;SDS011;16852;51.446;6.528;2023-07-24T08:23:40;1.13;;;0.93;;
27857;SDS011;16852;51.446;6.528;2023-07-24T08:25:50;0.98;;;0.88;;
27857;SDS011;16852;51.446;6.528;2023-07-24T08:27:59;1.02;;;0.80;;
27857;SDS011;16852;51.446;6.528;2023-07-24T08:30:00;1.35;;;0.98;;
27857;SDS011;16852;51.446;6.528;2023-07-24T08:32:00;1.83;;;0.93;;
27857;SDS011;16852;51.446;6.528;2023-07-24T08:34:01;1.00;;;0.90;;
27857;SDS011;16852;51.446;6.528;2023-07-24T08:36:05;1.85;;;0.90;;
27857;SDS011;16852;51.446;6.528;2023-07-24T08:38:07;1.23;;;1.10;;
27857;SDS011;16852;51.446;6.528;2023-07-24T08:40:07;1.17;;;0.90;;
27857;SDS011;16852;51.446;6.528;2023-07-24T08:42:10;2.25;;;1.02;;
27857;SDS011;16852;51.446;6.528;2023-07-24T08:44:12;1.80;;;1.20;;
27857;SDS011;16852;51.446;6.528;2023-07-24T08:46:12;1.40;;;1.00;;
27857;SDS011;16852;51.446;6.528;2023-07-24T08:48:13;2.05;;;1.25;;
27857;SDS011;16852;51.446;6.528;2023-07-24T08:50:14;1.20;;;1.10;;
27857;SDS011;16852;51.446;6.528;2023-07-24T08:52:15;1.58;;;1.05;;
27857;SDS011;16852;51.446;6.528;2023-07-24T08:54:16;1.70;;;1.50;;
27857;SDS011;16852;51.446;6.528;2023-07-24T08:56:19;1.02;;;0.93;;
27857;SDS011;16852;51.446;6.528;2023-07-24T08:58:19;1.73;;;1.20;;
27857;SDS011;16852;51.446;6.528;2023-07-24T09:00:20;1.70;;;1.40;;
27857;SDS011;16852;51.446;6.528;2023-07-24T09:02:21;1.80;;;1.30;;
27857;SDS011;16852;51.446;6.528;2023-07-24T09:04:21;1.45;;;1.17;;
27857;SDS011;16852;51.446;6.528;2023-07-24T09:06:22;1.80;;;1.33;;
27857;SDS011;16852;51.446;6.528;2023-07-24T09:10:31;1.98;;;1.50;;
27857;SDS011;16852;51.446;6.528;2023-07-24T09:12:31;1.80;;;1.23;;
27857;SDS011;16852;51.446;6.528;2023-07-24T09:14:32;1.70;;;1.50;;
27857;SDS011;16852;51.446;6.528;2023-07-24T09:16:32;1.83;;;1.60;;
27857;SDS011;16852;51.446;6.528;2023-07-24T09:18:40;1.58;;;1.42;;
27857;SDS011;16852;51.446;6.528;2023-07-24T09:20:43;1.42;;;1.30;;
27857;SDS011;16852;51.446;6.528;2023-07-24T09:22:51;1.30;;;1.20;;
27857;SDS011;16852;51.446;6.528;2023-07-24T09:24:54;2.33;;;1.55;;
27857;SDS011;16852;51.446;6.528;2023-07-24T09:28:56;1.35;;;1.15;;
27857;SDS011;16852;51.446;6.528;2023-07-24T09:30:57;2.17;;;1.50;;
27857;SDS011;16852;51.446;6.528;2023-07-24T09:33:00;2.10;;;1.48;;
27857;SDS011;16852;51.446;6.528;2023-07-24T09:35:01;2.13;;;1.50;;
27857;SDS011;16852;51.446;6.528;2023-07-24T09:37:02;1.10;;;1.00;;
27857;SDS011;16852;51.446;6.528;2023-07-24T09:39:03;1.75;;;1.30;;
27857;SDS011;16852;51.446;6.528;2023-07-24T09:41:06;2.03;;;1.40;;
27857;SDS011;16852;51.446;6.528;2023-07-24T09:45:24;1.38;;;1.27;;
27857;SDS011;16852;51.446;6.528;2023-07-24T09:47:26;1.33;;;1.05;;
27857;SDS011;16852;51.446;6.528;2023-07-24T09:49:26;1.23;;;1.13;;
27857;SDS011;16852;51.446;6.528;2023-07-24T09:51:28;1.88;;;1.38;;
27857;SDS011;16852;51.446;6.528;2023-07-24T09:53:34;1.25;;;1.15;;
27857;SDS011;16852;51.446;6.528;2023-07-24T09:55:52;2.25;;;1.10;;
27857;SDS011;16852;51.446;6.528;2023-07-24T09:57:58;1.45;;;1.10;;
27857;SDS011;16852;51.446;6.528;2023-07-24T10:00:00;3.15;;;1.15;;
27857;SDS011;16852;51.446;6.528;2023-07-24T10:02:01;1.40;;;1.00;;
27857;SDS011;16852;51.446;6.528;2023-07-24T10:04:03;1.40;;;1.00;;
27857;SDS011;16852;51.446;6.528;2023-07-24T10:06:04;1.73;;;1.27;;
27857;SDS011;16852;51.446;6.528;2023-07-24T10:08:05;1.58;;;1.20;;
27857;SDS011;16852;51.446;6.528;2023-07-24T10:10:06;1.27;;;1.17;;
27857;SDS011;16852;51.446;6.528;2023-07-24T10:12:07;1.63;;;1.00;;
27857;SDS011;16852;51.446;6.528;2023-07-24T10:14:09;2.03;;;0.98;;
27857;SDS011;16852;51.446;6.528;2023-07-24T10:16:10;1.95;;;1.35;;
27857;SDS011;16852;51.446;6.528;2023-07-24T10:18:11;1.88;;;1.20;;
27857;SDS011;16852;51.446;6.528;2023-07-24T10:20:11;2.45;;;1.13;;
27857;SDS011;16852;51.446;6.528;2023-07-24T10:22:16;1.45;;;1.00;;
27857;SDS011;16852;51.446;6.528;2023-07-24T10:24:19;1.10;;;1.00;;
27857;SDS011;16852;51.446;6.528;2023-07-24T10:26:24;1.30;;;1.15;;
27857;SDS011;16852;51.446;6.528;2023-07-24T10:30:30;2.05;;;1.17;;
27857;SDS011;16852;51.446;6.528;2023-07-24T10:32:31;2.17;;;1.33;;
27857;SDS011;16852;51.446;6.528;2023-07-24T10:34:38;2.10;;;1.00;;
27857;SDS011;16852;51.446;6.528;2023-07-24T10:36:39;1.30;;;1.10;;
27857;SDS011;16852;51.446;6.528;2023-07-24T10:38:41;1.65;;;0.88;;
27857;SDS011;16852;51.446;6.528;2023-07-24T10:40:43;1.27;;;1.13;;
27857;SDS011;16852;51.446;6.528;2023-07-24T10:42:45;2.30;;;1.60;;
27857;SDS011;16852;51.446;6.528;2023-07-24T10:44:45;1.27;;;0.90;;
27857;SDS011;16852;51.446;6.528;2023-07-24T10:46:46;1.95;;;1.15;;
27857;SDS011;16852;51.446;6.528;2023-07-24T10:48:47;1.48;;;1.25;;
27857;SDS011;16852;51.446;6.528;2023-07-24T10:50:50;1.95;;;1.27;;
27857;SDS011;16852;51.446;6.528;2023-07-24T10:52:51;2.30;;;1.20;;
27857;SDS011;16852;51.446;6.528;2023-07-24T10:54:52;2.30;;;1.20;;
27857;SDS011;16852;51.446;6.528;2023-07-24T10:56:59;1.17;;;1.08;;
27857;SDS011;16852;51.446;6.528;2023-07-24T10:59:04;1.90;;;1.45;;
27857;SDS011;16852;51.446;6.528;2023-07-24T11:01:06;1.67;;;1.05;;
27857;SDS011;16852;51.446;6.528;2023-07-24T11:03:10;1.53;;;1.33;;
27857;SDS011;16852;51.446;6.528;2023-07-24T11:05:12;2.28;;;1.58;;
27857;SDS011;16852;51.446;6.528;2023-07-24T11:07:13;1.50;;;1.20;;
27857;SDS011;16852;51.446;6.528;2023-07-24T11:09:15;2.40;;;1.50;;
27857;SDS011;16852;51.446;6.528;2023-07-24T11:11:15;1.50;;;1.25;;
27857;SDS011;16852;51.446;6.528;2023-07-24T11:13:16;5.35;;;1.77;;
27857;SDS011;16852;51.446;6.528;2023-07-24T11:15:25;2.90;;;2.15;;
27857;SDS011;16852;51.446;6.528;2023-07-24T11:17:33;2.38;;;1.38;;
27857;SDS011;16852;51.446;6.528;2023-07-24T11:19:37;2.58;;;1.30;;
27857;SDS011;16852;51.446;6.528;2023-07-24T11:21:38;3.95;;;1.63;;
27857;SDS011;16852;51.446;6.528;2023-07-24T11:25:52;1.30;;;1.20;;
27857;SDS011;16852;51.446;6.528;2023-07-24T11:27:53;1.70;;;1.60;;
27857;SDS011;16852;51.446;6.528;2023-07-24T11:29:54;2.90;;;1.80;;
27857;SDS011;16852;51.446;6.528;2023-07-24T11:31:55;2.13;;;1.55;;
27857;SDS011;16852;51.446;6.528;2023-07-24T11:33:56;3.03;;;1.63;;
27857;SDS011;16852;51.446;6.528;2023-07-24T11:35:57;1.77;;;1.30;;
27857;SDS011;16852;51.446;6.528;2023-07-24T11:37:58;2.58;;;1.33;;
27857;SDS011;16852;51.446;6.528;2023-07-24T11:40:00;2.47;;;1.27;;
27857;SDS011;16852;51.446;6.528;2023-07-24T11:42:08;2.63;;;1.50;;
27857;SDS011;16852;51.446;6.528;2023-07-24T11:44:09;1.77;;;1.50;;
27857;SDS011;16852;51.446;6.528;2023-07-24T11:46:09;1.85;;;1.40;;
27857;SDS011;16852;51.446;6.528;2023-07-24T11:48:10;2.97;;;1.73;;
27857;SDS011;16852;51.446;6.528;2023-07-24T11:50:12;2.35;;;1.70;;
27857;SDS011;16852;51.446;6.528;2023-07-24T11:52:13;2.60;;;1.45;;
27857;SDS011;16852;51.446;6.528;2023-07-24T11:54:14;3.05;;;1.70;;
27857;SDS011;16852;51.446;6.528;2023-07-24T11:56:15;3.55;;;2.10;;
27857;SDS011;16852;51.446;6.528;2023-07-24T11:58:17;1.95;;;1.75;;
27857;SDS011;16852;51.446;6.528;2023-07-24T12:00:19;3.35;;;2.22;;
27857;SDS011;16852;51.446;6.528;2023-07-24T12:02:20;3.42;;;1.85;;
27857;SDS011;16852;51.446;6.528;2023-07-24T12:04:21;2.58;;;1.75;;
27857;SDS011;16852;51.446;6.528;2023-07-24T12:06:21;4.50;;;2.38;;
27857;SDS011;16852;51.446;6.528;2023-07-24T12:08:30;4.93;;;2.15;;
27857;SDS011;16852;51.446;6.528;2023-07-24T12:10:37;2.92;;;2.17;;
27857;SDS011;16852;51.446;6.528;2023-07-24T12:12:39;4.00;;;1.98;;
27857;SDS011;16852;51.446;6.528;2023-07-24T12:14:43;2.90;;;1.85;;
27857;SDS011;16852;51.446;6.528;2023-07-24T12:16:43;1.73;;;1.58;;
27857;SDS011;16852;51.446;6.528;2023-07-24T12:18:44;2.90;;;2.15;;
27857;SDS011;16852;51.446;6.528;2023-07-24T12:20:44;2.40;;;1.55;;
27857;SDS011;16852;51.446;6.528;2023-07-24T12:22:45;2.42;;;1.77;;
27857;SDS011;16852;51.446;6.528;2023-07-24T12:24:46;2.65;;;1.80;;